createdAt,value
2017-08-23T00:01:06.971Z,85.30
2017-08-23T00:03:34.475Z,85.50
2017-08-23T00:06:01.983Z,85.60
2017-08-23T00:08:29.462Z,85.60
2017-08-23T00:10:56.974Z,85.70
2017-08-23T00:13:24.451Z,85.80
2017-08-23T00:15:53.909Z,85.90
2017-08-23T00:18:21.414Z,85.90
2017-08-23T00:20:48.899Z,85.90
2017-08-23T00:23:16.375Z,86.10
2017-08-23T00:25:43.874Z,86.00
2017-08-23T00:28:11.351Z,85.90
2017-08-23T00:30:38.857Z,85.80
2017-08-23T00:33:06.338Z,85.90
2017-08-23T00:35:33.838Z,86.00
2017-08-23T00:38:01.306Z,86.00
2017-08-23T00:40:29.730Z,86.00
2017-08-23T00:42:57.226Z,86.10
2017-08-23T00:45:24.706Z,86.10
2017-08-23T00:47:52.212Z,86.10
2017-08-23T00:50:19.764Z,86.00
2017-08-23T00:52:47.266Z,86.10
2017-08-23T00:55:14.746Z,86.20
2017-08-23T00:57:44.183Z,86.10
2017-08-23T01:00:11.663Z,86.10
2017-08-23T01:02:39.154Z,86.10
2017-08-23T01:05:06.640Z,86.00
2017-08-23T01:07:34.128Z,86.00
2017-08-23T01:10:01.607Z,85.90
2017-08-23T01:12:30.091Z,85.90
2017-08-23T01:14:58.480Z,85.90
2017-08-23T01:17:25.975Z,85.90
2017-08-23T01:19:54.396Z,86.00
2017-08-23T01:22:22.818Z,86.00
2017-08-23T01:24:50.305Z,86.10
2017-08-23T01:27:17.799Z,86.00
2017-08-23T01:29:47.234Z,86.00
2017-08-23T01:32:14.721Z,86.00
2017-08-23T01:34:42.220Z,85.80
2017-08-23T01:37:09.698Z,86.00
2017-08-23T01:39:37.165Z,86.00
2017-08-23T01:42:04.666Z,86.00
2017-08-23T01:44:32.138Z,85.80
2017-08-23T01:46:59.659Z,86.00
2017-08-23T01:49:28.070Z,85.80
2017-08-23T01:51:56.506Z,86.00
2017-08-23T01:54:23.994Z,85.90
2017-08-23T01:56:51.485Z,86.00
2017-08-23T01:59:18.954Z,85.90
2017-08-23T02:01:46.454Z,86.00
2017-08-23T02:04:13.924Z,85.90
2017-08-23T02:06:41.655Z,85.90
2017-08-23T02:09:09.130Z,86.10
2017-08-23T02:11:38.566Z,86.10
2017-08-23T02:14:06.055Z,86.40
2017-08-23T02:16:33.559Z,86.50
2017-08-23T02:19:01.047Z,86.70
2017-08-23T02:21:28.550Z,86.80
2017-08-23T02:23:56.027Z,86.90
2017-08-23T02:26:23.512Z,86.80
2017-08-23T02:28:51.010Z,86.90
2017-08-23T02:31:18.493Z,86.90
2017-08-23T02:33:46.002Z,87.20
2017-08-23T02:36:13.482Z,87.50
2017-08-23T02:38:41.004Z,87.50
2017-08-23T02:41:08.506Z,87.70
2017-08-23T02:43:35.978Z,87.80
2017-08-23T02:46:03.490Z,87.90
2017-08-23T02:48:30.971Z,87.90
2017-08-23T02:51:00.275Z,88.00
2017-08-23T02:53:27.758Z,87.80
2017-08-23T02:55:55.254Z,87.70
2017-08-23T02:58:23.774Z,87.90
2017-08-23T03:00:51.300Z,88.00
2017-08-23T03:03:18.794Z,88.00
2017-08-23T03:05:46.280Z,88.10
2017-08-23T03:08:14.733Z,88.10
2017-08-23T03:10:42.235Z,88.00
2017-08-23T03:13:09.734Z,88.10
2017-08-23T03:15:37.242Z,88.20
2017-08-23T03:18:04.736Z,88.20
2017-08-23T03:20:32.218Z,88.40
2017-08-23T03:22:59.722Z,88.30
2017-08-23T03:25:27.216Z,88.30
2017-08-23T03:27:54.731Z,88.40
2017-08-23T03:30:22.211Z,88.40
2017-08-23T03:32:49.722Z,88.50
2017-08-23T03:35:17.211Z,88.50
2017-08-23T03:37:44.722Z,88.50
2017-08-23T03:40:12.214Z,88.60
2017-08-23T03:42:39.717Z,88.70
2017-08-23T03:45:07.212Z,88.90
2017-08-23T03:47:34.718Z,89.00
2017-08-23T03:50:02.206Z,89.00
2017-08-23T03:52:32.650Z,89.00
2017-08-23T03:55:00.138Z,89.10
2017-08-23T03:57:27.658Z,89.00
2017-08-23T03:59:55.157Z,89.10
2017-08-23T04:02:22.660Z,89.00
2017-08-23T04:04:50.161Z,89.00
2017-08-23T04:07:17.651Z,89.00
2017-08-23T04:09:45.162Z,88.90
2017-08-23T04:12:12.658Z,88.80
2017-08-23T04:14:40.194Z,89.00
2017-08-23T04:17:09.621Z,88.90
2017-08-23T04:19:37.118Z,88.80
2017-08-23T04:22:04.642Z,88.70
2017-08-23T04:24:33.070Z,88.80
2017-08-23T04:27:00.587Z,88.70
2017-08-23T04:29:28.075Z,88.90
2017-08-23T04:31:55.586Z,88.90
2017-08-23T04:34:23.086Z,88.70
2017-08-23T04:36:50.617Z,89.00
2017-08-23T04:39:18.126Z,88.80
2017-08-23T04:41:45.629Z,88.80
2017-08-23T04:44:13.130Z,88.60
2017-08-23T04:46:40.668Z,88.50
2017-08-23T04:49:08.222Z,88.50
2017-08-23T04:51:37.666Z,88.40
2017-08-23T04:54:05.146Z,88.30
2017-08-23T04:56:32.659Z,88.20
2017-08-23T04:59:00.143Z,87.90
2017-08-23T05:01:29.585Z,87.90
2017-08-23T05:03:57.114Z,87.90
2017-08-23T05:06:24.613Z,87.90
2017-08-23T05:08:53.038Z,87.90
2017-08-23T05:11:20.537Z,87.80
2017-08-23T05:13:48.022Z,87.80
2017-08-23T05:16:15.531Z,87.80
2017-08-23T05:18:43.006Z,87.70
2017-08-23T05:21:10.521Z,87.80
2017-08-23T05:23:38.034Z,87.70
2017-08-23T05:26:06.484Z,87.70
2017-08-23T05:28:34.016Z,87.80
2017-08-23T05:31:01.507Z,87.80
2017-08-23T05:33:29.022Z,87.60
2017-08-23T05:35:56.595Z,87.40
2017-08-23T05:38:24.095Z,87.40
2017-08-23T05:40:51.607Z,87.40
2017-08-23T05:43:19.103Z,87.50
2017-08-23T05:45:46.608Z,87.30
2017-08-23T05:48:14.093Z,87.50
2017-08-23T05:50:41.590Z,87.60
2017-08-23T05:53:09.074Z,87.40
2017-08-23T05:55:36.564Z,87.30
2017-08-23T05:58:04.067Z,87.20
2017-08-23T06:00:31.574Z,86.80
2017-08-23T06:02:59.059Z,86.80
2017-08-23T06:05:26.566Z,86.70
2017-08-23T06:07:54.067Z,86.70
2017-08-23T06:10:21.552Z,86.80
2017-08-23T06:12:49.050Z,87.00
2017-08-23T06:15:18.555Z,87.00
2017-08-23T06:17:46.054Z,86.90
2017-08-23T06:20:13.544Z,86.90
2017-08-23T06:22:41.038Z,86.90
2017-08-23T06:25:08.563Z,86.80
2017-08-23T06:27:36.062Z,86.70
2017-08-23T06:30:03.567Z,86.40
2017-08-23T06:32:31.067Z,85.90
2017-08-23T06:34:58.570Z,86.00
2017-08-23T06:37:26.998Z,85.80
2017-08-23T06:39:54.486Z,85.50
2017-08-23T06:42:21.983Z,85.50
2017-08-23T06:44:49.486Z,85.60
2017-08-23T06:47:16.997Z,85.40
2017-08-23T06:49:45.422Z,85.40
2017-08-23T06:52:12.918Z,85.60
2017-08-23T06:54:40.425Z,85.20
2017-08-23T06:57:07.920Z,85.10
2017-08-23T06:59:35.431Z,85.20
2017-08-23T07:02:03.863Z,85.00
2017-08-23T07:04:31.378Z,84.80
2017-08-23T07:06:58.850Z,84.70
2017-08-23T07:09:26.339Z,85.10
2017-08-23T07:11:53.858Z,84.90
2017-08-23T07:14:21.364Z,84.80
2017-08-23T07:16:48.854Z,84.70
2017-08-23T07:19:16.359Z,84.40
2017-08-23T07:21:43.842Z,84.40
2017-08-23T07:24:11.349Z,84.40
2017-08-23T07:26:38.826Z,84.00
2017-08-23T07:29:06.340Z,84.00
2017-08-23T07:31:34.778Z,84.10
2017-08-23T07:34:02.302Z,83.70
2017-08-23T07:36:29.787Z,83.60
2017-08-23T07:38:57.266Z,83.20
2017-08-23T07:41:25.718Z,83.10
2017-08-23T07:43:53.202Z,83.00
2017-08-23T07:46:20.707Z,82.90
2017-08-23T07:48:48.190Z,82.80
2017-08-23T07:51:15.709Z,82.90
2017-08-23T07:53:43.243Z,82.70
2017-08-23T07:56:11.699Z,82.80
2017-08-23T07:58:40.154Z,82.50
2017-08-23T08:01:07.664Z,82.30
2017-08-23T08:03:35.171Z,82.20
2017-08-23T08:06:02.650Z,82.20
2017-08-23T08:08:30.146Z,82.00
2017-08-23T08:10:57.654Z,81.80
2017-08-23T08:13:25.139Z,81.50
2017-08-23T08:15:52.651Z,81.40
2017-08-23T08:18:20.152Z,81.10
2017-08-23T08:20:47.666Z,81.70
2017-08-23T08:23:16.099Z,80.80
2017-08-23T08:25:43.606Z,80.20
2017-08-23T08:28:11.102Z,80.50
2017-08-23T08:30:38.630Z,80.10
2017-08-23T08:33:06.122Z,80.70
2017-08-23T08:35:33.623Z,79.50
2017-08-23T08:38:01.120Z,79.10
2017-08-23T08:40:28.638Z,79.50
2017-08-23T08:42:56.151Z,79.00
2017-08-23T08:45:23.646Z,79.30
2017-08-23T08:47:52.097Z,78.90
2017-08-23T08:50:19.606Z,78.70
2017-08-23T08:52:47.095Z,77.70
2017-08-23T08:55:14.606Z,77.50
2017-08-23T08:57:42.094Z,76.80
2017-08-23T09:00:11.546Z,77.40
2017-08-23T09:02:39.046Z,77.00
2017-08-23T09:05:06.555Z,77.10
2017-08-23T09:07:34.059Z,76.80
2017-08-23T09:10:02.499Z,76.90
2017-08-23T09:12:30.322Z,76.60
2017-08-23T09:14:57.812Z,76.60
2017-08-23T09:17:25.322Z,76.30
2017-08-23T09:19:52.817Z,76.50
2017-08-23T09:22:20.310Z,76.70
2017-08-23T09:24:47.806Z,76.50
2017-08-23T09:27:15.298Z,76.10
2017-08-23T09:29:42.831Z,76.30
2017-08-23T09:32:10.339Z,76.40
2017-08-23T09:34:37.848Z,76.50
2017-08-23T09:37:05.330Z,76.00
2017-08-23T09:39:32.826Z,76.10
2017-08-23T09:42:00.311Z,75.70
2017-08-23T09:44:27.825Z,75.70
2017-08-23T09:46:56.206Z,75.60
2017-08-23T09:49:23.716Z,75.40
2017-08-23T09:51:51.207Z,75.00
2017-08-23T09:54:19.629Z,75.20
2017-08-23T09:56:47.118Z,74.80
2017-08-23T09:59:14.624Z,75.20
2017-08-23T10:01:42.118Z,74.90
2017-08-23T10:04:09.595Z,74.50
2017-08-23T10:06:37.093Z,74.20
2017-08-23T10:09:04.650Z,74.30
2017-08-23T10:11:32.172Z,74.90
2017-08-23T10:13:59.658Z,74.50
2017-08-23T10:16:27.172Z,74.20
2017-08-23T10:18:54.659Z,74.60
2017-08-23T10:21:22.152Z,73.80
2017-08-23T10:23:49.648Z,74.00
2017-08-23T10:26:17.156Z,73.80
2017-08-23T10:28:44.704Z,73.90
2017-08-23T10:31:13.090Z,73.80
2017-08-23T10:33:40.607Z,73.60
2017-08-23T10:36:08.115Z,73.00
2017-08-23T10:38:36.503Z,72.90
2017-08-23T10:41:03.991Z,73.20
2017-08-23T10:43:31.496Z,72.50
2017-08-23T10:45:58.979Z,72.90
2017-08-23T10:48:26.483Z,72.60
2017-08-23T10:50:53.970Z,72.40
2017-08-23T10:53:23.422Z,72.10
2017-08-23T10:55:50.910Z,72.50
2017-08-23T10:58:18.409Z,72.00
2017-08-23T11:00:46.843Z,71.40
2017-08-23T11:03:14.330Z,71.30
2017-08-23T11:05:41.844Z,71.60
2017-08-23T11:08:09.326Z,71.50
2017-08-23T11:10:36.826Z,71.50
2017-08-23T11:13:04.316Z,71.20
2017-08-23T11:15:31.831Z,71.70
2017-08-23T11:18:00.276Z,71.40
2017-08-23T11:20:27.763Z,71.60
2017-08-23T11:22:56.202Z,71.10
2017-08-23T11:25:23.687Z,71.00
2017-08-23T11:27:51.195Z,71.50
2017-08-23T11:30:18.675Z,70.90
2017-08-23T11:32:46.174Z,71.80
2017-08-23T11:35:13.664Z,70.70
2017-08-23T11:37:43.097Z,70.50
2017-08-23T11:40:10.594Z,70.00
2017-08-23T11:42:38.130Z,70.00
2017-08-23T11:45:05.626Z,70.20
2017-08-23T11:47:33.142Z,70.40
2017-08-23T11:50:00.639Z,70.70
2017-08-23T11:52:28.146Z,71.50
2017-08-23T11:54:55.643Z,70.80
2017-08-23T11:57:23.162Z,70.70
2017-08-23T11:59:50.666Z,69.40
2017-08-23T12:02:18.214Z,69.10
2017-08-23T12:04:45.682Z,68.70
2017-08-23T12:07:13.167Z,68.80
2017-08-23T12:09:42.594Z,69.10
2017-08-23T12:12:10.078Z,68.90
2017-08-23T12:14:37.702Z,68.00
2017-08-23T12:17:05.191Z,67.80
2017-08-23T12:19:32.682Z,68.20
2017-08-23T12:22:01.139Z,67.70
2017-08-23T12:24:28.635Z,68.00
2017-08-23T12:26:56.164Z,67.60
2017-08-23T12:29:23.691Z,68.10
2017-08-23T12:31:51.174Z,68.20
2017-08-23T12:34:18.677Z,67.60
2017-08-23T12:36:46.169Z,67.80
2017-08-23T12:39:13.660Z,67.60
2017-08-23T12:41:41.146Z,67.90
2017-08-23T12:44:08.658Z,68.00
2017-08-23T12:46:36.155Z,67.50
2017-08-23T12:49:04.673Z,67.20
2017-08-23T12:51:32.167Z,67.20
2017-08-23T12:53:59.659Z,67.30
2017-08-23T12:56:27.183Z,67.20
2017-08-23T12:58:54.672Z,67.30
2017-08-23T13:01:22.191Z,67.40
2017-08-23T13:03:49.701Z,67.40
2017-08-23T13:06:17.195Z,68.70
2017-08-23T13:08:44.711Z,68.10
2017-08-23T13:11:13.094Z,69.20
2017-08-23T13:13:40.603Z,68.80
2017-08-23T13:16:08.102Z,66.90
2017-08-23T13:18:35.607Z,66.50
2017-08-23T13:21:03.082Z,67.00
2017-08-23T13:23:30.603Z,67.50
2017-08-23T13:25:58.102Z,68.80
2017-08-23T13:28:25.616Z,68.50
2017-08-23T13:30:53.471Z,66.90
2017-08-23T13:33:20.971Z,66.80
2017-08-23T13:35:48.455Z,65.60
2017-08-23T13:38:15.963Z,66.20
2017-08-23T13:40:44.378Z,67.10
2017-08-23T13:43:11.870Z,66.80
2017-08-23T13:45:39.362Z,68.10
2017-08-23T13:48:06.844Z,68.30
2017-08-23T13:50:34.347Z,68.40
2017-08-23T13:53:01.838Z,66.90
2017-08-23T13:55:29.354Z,67.50
2017-08-23T13:57:56.859Z,66.50
2017-08-23T14:00:24.349Z,66.60
2017-08-23T14:02:51.847Z,67.30
2017-08-23T14:05:19.348Z,66.10
2017-08-23T14:07:46.867Z,67.60
2017-08-23T14:10:15.349Z,66.90
2017-08-23T14:12:42.879Z,67.60
2017-08-23T14:15:10.434Z,68.10
2017-08-23T14:17:37.947Z,66.80
2017-08-23T14:20:05.433Z,67.00
2017-08-23T14:22:32.930Z,68.00
2017-08-23T14:25:00.422Z,67.90
2017-08-23T14:27:27.922Z,68.80
2017-08-23T14:29:55.399Z,67.10
2017-08-23T14:32:22.911Z,66.80
2017-08-23T14:34:50.500Z,66.50
2017-08-23T14:37:18.067Z,67.70
2017-08-23T14:39:45.543Z,68.00
2017-08-23T14:42:14.965Z,66.90
2017-08-23T14:44:42.483Z,67.30
2017-08-23T14:47:09.977Z,67.50
2017-08-23T14:49:37.451Z,67.00
2017-08-23T14:52:05.847Z,67.10
2017-08-23T14:54:33.345Z,66.80
2017-08-23T14:57:00.835Z,67.80
2017-08-23T14:59:29.298Z,68.80
2017-08-23T15:01:56.804Z,67.70
2017-08-23T15:04:24.294Z,67.80
2017-08-23T15:06:51.795Z,68.90
2017-08-23T15:09:21.230Z,68.30
2017-08-23T15:11:48.714Z,68.30
2017-08-23T15:14:16.230Z,68.20
2017-08-23T15:16:43.747Z,66.80
2017-08-23T15:19:11.239Z,67.40
2017-08-23T15:21:39.749Z,66.50
2017-08-23T15:24:07.234Z,66.50
2017-08-23T15:26:36.254Z,66.70
2017-08-23T15:29:03.749Z,67.00
2017-08-23T15:31:31.246Z,67.90
2017-08-23T15:33:58.740Z,68.20
2017-08-23T15:36:28.205Z,68.30
2017-08-23T15:38:55.784Z,68.60
2017-08-23T15:41:23.290Z,68.20
2017-08-23T15:43:50.798Z,68.00
2017-08-23T15:46:18.269Z,67.00
2017-08-23T15:48:45.750Z,67.20
2017-08-23T15:51:15.197Z,68.20
2017-08-23T15:53:42.703Z,69.80
2017-08-23T15:56:10.229Z,70.20
2017-08-23T15:58:37.715Z,70.60
2017-08-23T16:01:05.222Z,69.90
2017-08-23T16:03:32.712Z,68.80
2017-08-23T16:06:00.202Z,67.80
2017-08-23T16:08:29.674Z,68.80
2017-08-23T16:10:57.176Z,69.70
2017-08-23T16:13:24.655Z,69.50
2017-08-23T16:15:52.192Z,67.20
2017-08-23T16:18:19.714Z,68.50
2017-08-23T16:20:47.305Z,69.50
2017-08-23T16:23:14.776Z,70.60
2017-08-23T16:25:42.278Z,70.90
2017-08-23T16:28:09.795Z,70.80
2017-08-23T16:30:37.316Z,68.50
2017-08-23T16:33:04.794Z,68.90
2017-08-23T16:35:32.287Z,69.40
2017-08-23T16:37:59.785Z,69.80
2017-08-23T16:40:28.204Z,69.80
2017-08-23T16:42:55.699Z,70.40
2017-08-23T16:45:23.207Z,69.70
2017-08-23T16:47:50.689Z,70.80
2017-08-23T16:50:20.158Z,70.10
2017-08-23T16:52:47.651Z,69.70
2017-08-23T16:55:15.183Z,70.50
2017-08-23T16:57:42.721Z,71.10
2017-08-23T17:00:12.139Z,71.10
2017-08-23T17:02:39.626Z,71.20
2017-08-23T17:05:07.107Z,71.70
2017-08-23T17:07:34.624Z,72.70
2017-08-23T17:10:02.099Z,72.50
2017-08-23T17:12:29.599Z,72.90
2017-08-23T17:14:57.110Z,73.60
2017-08-23T17:17:24.607Z,73.40
2017-08-23T17:19:52.107Z,72.70
2017-08-23T17:22:20.544Z,72.80
2017-08-23T17:24:49.019Z,72.60
2017-08-23T17:27:16.512Z,72.40
2017-08-23T17:29:45.996Z,72.80
2017-08-23T17:32:13.658Z,73.90
2017-08-23T17:34:41.193Z,74.40
2017-08-23T17:37:08.699Z,75.40
2017-08-23T17:39:36.252Z,76.10
2017-08-23T17:42:05.679Z,76.40
2017-08-23T17:44:33.307Z,76.60
2017-08-23T17:47:01.807Z,76.80
2017-08-23T17:49:29.303Z,77.00
2017-08-23T17:51:56.818Z,77.30
2017-08-23T17:54:24.311Z,77.50
2017-08-23T17:56:51.802Z,77.70
2017-08-23T17:59:20.239Z,77.80
2017-08-23T18:01:47.783Z,78.20
2017-08-23T18:04:15.291Z,78.60
2017-08-23T18:06:42.790Z,79.00
2017-08-23T18:09:10.313Z,79.30
2017-08-23T18:11:37.851Z,79.70
2017-08-23T18:14:05.330Z,79.90
2017-08-23T18:16:32.841Z,80.00
2017-08-23T18:19:00.322Z,80.40
2017-08-23T18:21:27.795Z,80.70
2017-08-23T18:23:56.171Z,81.00
2017-08-23T18:26:24.616Z,81.60
2017-08-23T18:28:52.114Z,81.60
2017-08-23T18:31:19.598Z,82.20
2017-08-23T18:33:47.095Z,82.60
2017-08-23T18:36:14.679Z,83.10
2017-08-23T18:38:42.155Z,83.40
2017-08-23T18:41:09.670Z,83.70
2017-08-23T18:43:38.130Z,84.60
2017-08-23T18:46:05.625Z,84.80
2017-08-23T18:48:33.111Z,84.70
2017-08-23T18:51:00.610Z,84.60
2017-08-23T18:53:28.235Z,84.80
2017-08-23T18:55:55.796Z,85.50
2017-08-23T18:58:23.316Z,85.50
2017-08-23T19:00:52.810Z,85.90
2017-08-23T19:03:20.299Z,85.60
2017-08-23T19:05:47.818Z,85.80
2017-08-23T19:08:15.329Z,86.30
2017-08-23T19:10:42.871Z,85.90
2017-08-23T19:13:10.347Z,86.80
2017-08-23T19:15:37.855Z,87.20
2017-08-23T19:18:05.329Z,86.80
2017-08-23T19:20:34.793Z,86.40
2017-08-23T19:23:02.283Z,87.00
2017-08-23T19:25:29.774Z,87.00
2017-08-23T19:27:57.287Z,87.20
2017-08-23T19:30:24.771Z,87.30
2017-08-23T19:32:52.271Z,87.70
2017-08-23T19:35:19.777Z,87.60
2017-08-23T19:37:47.280Z,87.20
2017-08-23T19:40:15.043Z,87.10
2017-08-23T19:42:42.646Z,86.70
2017-08-23T19:45:10.192Z,86.80
2017-08-23T19:47:37.751Z,87.30
2017-08-23T19:50:07.280Z,87.50
2017-08-23T19:52:34.823Z,87.30
2017-08-23T19:55:02.344Z,87.50
2017-08-23T19:57:29.898Z,87.70
2017-08-23T19:59:57.447Z,88.10
2017-08-23T20:02:25.005Z,87.90
2017-08-23T20:04:52.598Z,87.90
2017-08-23T20:07:20.208Z,87.90
2017-08-23T20:09:47.854Z,88.40
2017-08-23T20:12:15.473Z,88.90
2017-08-23T20:14:43.120Z,88.90
2017-08-23T20:17:10.691Z,88.80
2017-08-23T20:19:38.298Z,89.20
2017-08-23T20:22:05.874Z,88.90
2017-08-23T20:24:33.413Z,89.30
2017-08-23T20:27:01.899Z,89.40
2017-08-23T20:29:29.455Z,89.30
2017-08-23T20:31:56.992Z,89.40
2017-08-23T20:34:24.548Z,89.00
2017-08-23T20:36:52.074Z,89.40
2017-08-23T20:39:19.697Z,89.40
2017-08-23T20:41:47.245Z,89.60
2017-08-23T20:44:14.834Z,89.40
2017-08-23T20:46:42.458Z,89.20
2017-08-23T20:49:10.280Z,89.00
2017-08-23T20:54:12.825Z,89.60
2017-08-23T20:56:40.376Z,90.10
2017-08-23T20:59:07.947Z,89.70
2017-08-23T21:01:35.505Z,89.90
2017-08-23T21:04:03.043Z,89.70
2017-08-23T21:06:30.647Z,89.80
2017-08-23T21:08:58.191Z,89.80
2017-08-23T21:11:25.794Z,90.10
2017-08-23T21:13:54.358Z,89.90
2017-08-23T21:16:23.963Z,90.50
2017-08-23T21:18:52.467Z,90.80
2017-08-23T21:21:20.013Z,91.00
2017-08-23T21:23:47.592Z,91.20
2017-08-23T21:26:15.159Z,91.40
2017-08-23T21:28:42.720Z,91.50
2017-08-23T21:31:10.288Z,90.70
2017-08-23T21:33:37.869Z,90.90
2017-08-23T21:36:05.739Z,91.50
2017-08-23T21:38:33.292Z,91.20
2017-08-23T21:41:01.843Z,91.50
2017-08-23T21:43:29.368Z,91.80
2017-08-23T21:45:56.976Z,91.80
2017-08-23T21:48:24.520Z,92.00
2017-08-23T21:50:52.051Z,92.20
2017-08-23T21:53:19.626Z,92.20
2017-08-23T21:58:21.074Z,92.60
2017-08-23T22:00:48.677Z,92.20
2017-08-23T22:03:16.367Z,92.40
2017-08-23T22:05:43.922Z,92.40
2017-08-23T22:08:11.469Z,92.60
2017-08-23T22:10:39.024Z,92.70
2017-08-23T22:13:06.639Z,92.90
2017-08-23T22:15:34.217Z,92.50
2017-08-23T22:18:01.765Z,92.90
2017-08-23T22:20:31.276Z,92.80
2017-08-23T22:22:58.793Z,92.20
2017-08-23T22:25:26.313Z,91.90
2017-08-23T22:27:53.904Z,92.50
2017-08-23T22:30:21.471Z,92.80
2017-08-23T22:32:49.009Z,92.90
2017-08-23T22:35:16.558Z,92.70
2017-08-23T22:37:44.085Z,92.80
2017-08-23T22:40:11.660Z,92.60
2017-08-23T22:42:39.184Z,92.50
2017-08-23T22:45:06.806Z,92.00
2017-08-23T22:47:34.390Z,92.00
2017-08-23T22:50:01.928Z,92.30
2017-08-23T22:52:29.442Z,91.90
2017-08-23T22:54:57.047Z,91.60
2017-08-23T22:57:24.574Z,91.90
2017-08-23T22:59:52.067Z,91.90
2017-08-23T23:02:19.580Z,92.20
2017-08-23T23:04:47.063Z,92.20
2017-08-23T23:07:14.570Z,92.50
2017-08-23T23:09:42.062Z,92.60
2017-08-23T23:12:09.770Z,92.90
2017-08-23T23:14:37.358Z,92.90
2017-08-23T23:17:04.859Z,93.10
2017-08-23T23:19:33.290Z,92.90
2017-08-23T23:22:00.791Z,92.90
2017-08-23T23:24:28.273Z,93.10
2017-08-23T23:26:55.793Z,93.40
2017-08-23T23:29:23.282Z,93.50
2017-08-23T23:31:50.790Z,93.50
2017-08-23T23:34:18.274Z,93.40
2017-08-23T23:36:45.778Z,93.60
2017-08-23T23:39:13.262Z,93.80
2017-08-23T23:41:40.780Z,93.70
2017-08-23T23:44:08.323Z,93.90
2017-08-23T23:46:35.810Z,93.90
2017-08-23T23:49:03.311Z,94.00
2017-08-23T23:51:30.794Z,94.20
2017-08-23T23:53:58.278Z,94.20
2017-08-23T23:56:25.798Z,94.20
2017-08-23T23:58:53.295Z,94.30
